Time;durP1;ratioP1;P1;durP2;ratioP2;P2;SDS_P1;SDS_P2;PMS_P1;PMS_P2;Temp;Humidity;BMP_temperature;BMP_pressure;BME280_temperature;BME280_humidity;BME280_pressure;Samples;Min_cycle;Max_cycle;Signal;HPM_P1;HPM_P2
2024/02/09 00:01:11;;;;;;;14.45;4.20;;;11.70;94.20;;;;;;5040754;28;20083;-91
2024/02/09 00:03:38;;;;;;;26.80;4.90;;;11.70;94.40;;;;;;5042004;28;20021;-89
2024/02/09 00:06:08;;;;;;;12.55;4.28;;;11.70;94.40;;;;;;5022975;28;20048;-89
2024/02/09 00:08:35;;;;;;;17.58;5.22;;;11.70;94.50;;;;;;5004185;28;20038;-89
2024/02/09 00:11:01;;;;;;;16.92;4.20;;;11.70;95.00;;;;;;5010813;28;20025;-93
2024/02/09 00:13:28;;;;;;;13.70;3.33;;;11.70;95.80;;;;;;5023289;28;20029;-92
2024/02/09 00:15:54;;;;;;;12.90;4.15;;;11.70;96.40;;;;;;5039387;28;20072;-91
2024/02/09 00:18:22;;;;;;;12.30;4.35;;;11.70;97.70;;;;;;5038648;28;20027;-90
2024/02/09 00:20:50;;;;;;;16.58;4.55;;;11.70;98.20;;;;;;5020668;28;20113;-89
2024/02/09 00:23:18;;;;;;;15.25;5.65;;;11.60;99.00;;;;;;5039483;28;20032;-92
2024/02/09 00:25:44;;;;;;;12.27;4.25;;;11.50;99.90;;;;;;5039936;28;20017;-90
2024/02/09 00:28:11;;;;;;;13.80;4.90;;;11.40;99.90;;;;;;5039337;28;20026;-90
2024/02/09 00:30:40;;;;;;;15.18;4.55;;;11.40;99.90;;;;;;5021209;28;20039;-90
2024/02/09 00:33:08;;;;;;;9.85;4.93;;;11.30;99.90;;;;;;5039696;28;20100;-90
2024/02/09 00:35:35;;;;;;;12.63;5.18;;;11.10;99.90;;;;;;5038916;28;20021;-91
2024/02/09 00:38:02;;;;;;;19.60;5.15;;;11.00;99.90;;;;;;5037987;28;20017;-91
2024/02/09 00:40:31;;;;;;;16.33;5.28;;;11.00;99.90;;;;;;5021870;28;20036;-91
2024/02/09 00:42:57;;;;;;;14.85;4.68;;;10.90;99.90;;;;;;5022641;28;20022;-91
2024/02/09 00:45:25;;;;;;;16.17;5.10;;;10.80;99.90;;;;;;5038829;28;20033;-91
2024/02/09 00:47:52;;;;;;;16.33;4.97;;;10.80;99.90;;;;;;5020913;28;20032;-92
2024/02/09 00:50:17;;;;;;;12.77;5.00;;;10.70;99.90;;;;;;5038785;28;20093;-89
2024/02/09 00:52:53;;;;;;;14.90;4.20;;;10.60;99.90;;;;;;5039175;28;20022;-90
2024/02/09 00:55:20;;;;;;;18.45;5.80;;;10.60;99.90;;;;;;5039479;28;20087;-91
2024/02/09 00:57:46;;;;;;;18.58;4.68;;;10.50;99.90;;;;;;5039074;28;20033;-90
2024/02/09 01:00:16;;;;;;;14.07;5.63;;;10.50;99.90;;;;;;5039399;28;20108;-90
2024/02/09 01:02:43;;;;;;;14.45;5.82;;;10.40;99.90;;;;;;5039683;28;20116;-90
2024/02/09 01:05:15;;;;;;;12.48;3.83;;;10.50;99.90;;;;;;5021804;28;20093;-91
2024/02/09 01:07:44;;;;;;;17.63;5.57;;;10.40;99.90;;;;;;5021635;28;20122;-91
2024/02/09 01:10:10;;;;;;;13.32;4.28;;;10.40;99.90;;;;;;5021215;28;20387;-90
2024/02/09 02:45:55;;;;;;;17.35;5.22;;;9.60;99.90;;;;;;5042279;28;20042;-93
2024/02/09 03:04:51;;;;;;;15.55;5.75;;;9.60;99.90;;;;;;5042916;28;20037;-92
2024/02/09 03:07:17;;;;;;;13.85;5.93;;;9.60;99.90;;;;;;5042874;28;20030;-92
2024/02/09 03:09:42;;;;;;;14.40;4.53;;;9.60;99.90;;;;;;5027546;28;20033;-91
2024/02/09 03:12:13;;;;;;;13.00;4.90;;;9.60;99.90;;;;;;5042461;28;20032;-92
2024/02/09 03:14:39;;;;;;;13.05;4.57;;;9.60;99.90;;;;;;5041741;28;20026;-91
2024/02/09 03:17:05;;;;;;;16.17;5.75;;;9.60;99.90;;;;;;5024084;28;20117;-91
2024/02/09 03:19:31;;;;;;;12.13;4.75;;;9.60;99.90;;;;;;5041954;28;20053;-91
2024/02/09 03:21:56;;;;;;;14.95;4.45;;;9.70;99.90;;;;;;5041150;28;20037;-91
2024/02/09 03:24:22;;;;;;;16.45;4.60;;;9.70;99.90;;;;;;5024670;28;20075;-93
2024/02/09 03:26:48;;;;;;;14.73;5.60;;;9.60;99.90;;;;;;5023968;28;20483;-91
2024/02/09 03:29:13;;;;;;;16.40;5.18;;;9.60;99.90;;;;;;5041787;28;20026;-92
2024/02/09 03:31:39;;;;;;;13.77;5.25;;;9.60;99.90;;;;;;5041238;28;20024;-92
2024/02/09 03:34:05;;;;;;;18.48;6.28;;;9.60;99.90;;;;;;5024682;28;20022;-92
2024/02/09 03:36:34;;;;;;;14.65;5.68;;;9.60;99.90;;;;;;5021794;28;20053;-91
2024/02/09 03:39:01;;;;;;;15.35;4.97;;;9.60;99.90;;;;;;5041200;28;20097;-90
2024/02/09 03:41:28;;;;;;;;;;;9.50;99.90;;;;;;5042882;28;20037;-92
2024/02/09 03:43:53;;;;;;;14.80;6.05;;;9.50;99.90;;;;;;5027532;28;19905;-91
2024/02/09 03:46:19;;;;;;;14.13;5.47;;;9.50;99.90;;;;;;5023137;28;20042;-91
2024/02/09 03:48:45;;;;;;;12.70;5.35;;;9.50;99.90;;;;;;5023480;28;20022;-92
2024/02/09 03:51:11;;;;;;;15.15;6.82;;;9.50;99.90;;;;;;5040536;28;20333;-92
2024/02/09 03:53:36;;;;;;;18.10;6.35;;;9.50;99.90;;;;;;5012297;28;20445;-91
2024/02/09 03:56:02;;;;;;;16.70;6.18;;;9.50;99.90;;;;;;5018510;28;20025;-91
2024/02/09 03:58:28;;;;;;;12.20;6.05;;;9.50;99.90;;;;;;5041650;28;20087;-91
2024/02/09 04:00:53;;;;;;;14.40;5.57;;;9.50;99.90;;;;;;5023218;28;20060;-91
2024/02/09 04:03:19;;;;;;;13.20;5.97;;;9.50;99.90;;;;;;5040833;28;20052;-93
2024/02/09 04:05:46;;;;;;;12.43;6.38;;;9.50;99.90;;;;;;5040642;28;20022;-93
2024/02/09 04:08:11;;;;;;;17.60;6.88;;;9.40;99.90;;;;;;5023153;28;20025;-91
2024/02/09 04:10:37;;;;;;;18.30;6.95;;;9.50;99.90;;;;;;5041175;28;20021;-91
2024/02/09 04:13:05;;;;;;;18.00;5.70;;;9.50;99.90;;;;;;5040792;28;20083;-91
2024/02/09 04:15:31;;;;;;;12.68;5.47;;;9.50;99.90;;;;;;5041166;28;20025;-92
2024/02/09 04:18:01;;;;;;;11.63;5.93;;;9.50;99.90;;;;;;5040756;28;20044;-92
2024/02/09 04:20:27;;;;;;;10.23;5.50;;;9.50;99.90;;;;;;5041417;28;20099;-92
2024/02/09 04:22:53;;;;;;;16.80;6.35;;;9.50;99.90;;;;;;5041693;28;20488;-91
2024/02/09 04:25:18;;;;;;;17.00;5.82;;;9.50;99.90;;;;;;5040584;28;20036;-90
2024/02/09 04:27:45;;;;;;;13.88;5.38;;;9.50;99.90;;;;;;5039845;28;20029;-91
2024/02/09 04:30:15;;;;;;;15.35;6.32;;;9.50;99.90;;;;;;5041095;28;20044;-91
2024/02/09 04:32:40;;;;;;;16.17;4.78;;;9.50;99.90;;;;;;5040965;28;20022;-91
2024/02/09 04:35:06;;;;;;;23.02;7.07;;;9.50;99.90;;;;;;5041750;28;20021;-93
2024/02/09 04:37:31;;;;;;;16.73;7.72;;;9.50;99.90;;;;;;5033237;28;20026;-92
2024/02/09 04:39:57;;;;;;;14.05;7.00;;;9.50;99.90;;;;;;5042422;28;20049;-91
2024/02/09 04:42:23;;;;;;;15.05;6.18;;;9.50;99.90;;;;;;5040586;28;20022;-91
2024/02/09 04:44:49;;;;;;;14.95;6.70;;;9.50;99.90;;;;;;5040620;28;20031;-91
2024/02/09 04:47:14;;;;;;;13.25;5.88;;;9.50;99.90;;;;;;5041642;28;20025;-91
2024/02/09 04:49:40;;;;;;;11.35;5.72;;;9.50;99.90;;;;;;5040616;28;20057;-92
2024/02/09 04:52:06;;;;;;;12.68;5.05;;;9.50;99.90;;;;;;5023557;28;20032;-92
2024/02/09 04:54:32;;;;;;;18.00;6.63;;;9.50;99.90;;;;;;5039695;28;20021;-90
2024/02/09 04:56:58;;;;;;;17.98;6.10;;;9.50;99.90;;;;;;5022190;28;20017;-93
2024/02/09 04:59:30;;;;;;;18.20;8.93;;;9.50;99.90;;;;;;5039979;28;20021;-91
2024/02/09 05:01:56;;;;;;;21.70;9.23;;;9.50;99.90;;;;;;5024218;28;20032;-91
2024/02/09 05:04:21;;;;;;;15.35;6.30;;;9.50;99.90;;;;;;5040271;28;20021;-91
2024/02/09 05:06:47;;;;;;;16.10;6.53;;;9.50;99.90;;;;;;5023659;28;20037;-92
2024/02/09 05:09:13;;;;;;;15.25;6.00;;;9.50;99.90;;;;;;5040600;28;20109;-91
2024/02/09 05:11:39;;;;;;;14.27;6.60;;;9.50;99.90;;;;;;5041627;28;20693;-92
2024/02/09 05:14:06;;;;;;;12.07;6.30;;;9.50;99.90;;;;;;5042731;28;20021;-92
2024/02/09 05:16:33;;;;;;;17.70;6.90;;;9.50;99.90;;;;;;5041239;28;20029;-91
2024/02/09 05:19:01;;;;;;;18.30;7.35;;;9.50;99.90;;;;;;5039714;28;20080;-91
2024/02/09 05:21:26;;;;;;;20.58;8.45;;;9.50;99.90;;;;;;5038028;28;20021;-90
2024/02/09 05:23:52;;;;;;;13.55;8.18;;;9.50;99.90;;;;;;5037268;28;20160;-92
2024/02/09 05:26:19;;;;;;;17.02;8.70;;;9.50;99.90;;;;;;5041036;28;20029;-92
2024/02/09 05:28:46;;;;;;;18.67;8.52;;;9.50;99.90;;;;;;5050253;28;20029;-92
2024/02/09 05:31:13;;;;;;;19.23;9.30;;;9.50;99.90;;;;;;5043916;28;20040;-94
2024/02/09 05:33:42;;;;;;;14.38;7.45;;;9.50;99.90;;;;;;5043733;28;20030;-94
2024/02/09 05:36:19;;;;;;;16.75;7.32;;;9.50;99.90;;;;;;5026259;28;20049;-92
2024/02/09 05:38:45;;;;;;;16.23;6.15;;;9.50;99.90;;;;;;5025266;28;20048;-94
2024/02/09 05:41:11;;;;;;;32.22;15.63;;;9.50;99.90;;;;;;5025266;28;20052;-94
2024/02/09 05:43:37;;;;;;;22.40;9.60;;;9.50;99.90;;;;;;5043373;28;20474;-93
2024/02/09 05:46:03;;;;;;;18.42;11.05;;;9.50;99.90;;;;;;5025390;28;20033;-94
2024/02/09 05:48:29;;;;;;;13.80;6.00;;;9.50;99.90;;;;;;5043767;28;20033;-94
2024/02/09 05:50:55;;;;;;;12.63;6.10;;;9.50;99.90;;;;;;5027489;28;20041;-93
2024/02/09 05:53:21;;;;;;;16.23;7.40;;;9.60;99.90;;;;;;5026065;28;20033;-95
2024/02/09 05:55:49;;;;;;;18.25;7.15;;;9.60;99.90;;;;;;5046025;28;20103;-95
2024/02/09 05:58:16;;;;;;;13.82;6.25;;;9.60;99.90;;;;;;5049613;28;20025;-94
2024/02/09 06:00:43;;;;;;;11.30;5.88;;;9.60;99.90;;;;;;5038511;28;20091;-94
2024/02/09 06:03:10;;;;;;;12.15;5.45;;;9.60;99.90;;;;;;5026957;28;20033;-93
2024/02/09 06:05:40;;;;;;;8.73;4.72;;;9.60;99.90;;;;;;5045063;28;20032;-94
2024/02/09 06:08:10;;;;;;;13.05;5.32;;;9.60;99.90;;;;;;5045443;28;20026;-94
2024/02/09 06:10:36;;;;;;;11.75;5.38;;;9.70;99.90;;;;;;5020959;28;20093;-93
2024/02/09 06:13:03;;;;;;;10.43;4.68;;;9.70;99.90;;;;;;5027109;28;20088;-94
2024/02/09 06:15:28;;;;;;;12.18;5.03;;;9.80;99.90;;;;;;5027590;28;20052;-95
2024/02/09 06:17:56;;;;;;;12.00;4.80;;;9.80;99.90;;;;;;5026888;28;20026;-94
2024/02/09 06:20:22;;;;;;;;;;;9.80;99.90;;;;;;5027004;28;20030;-94
2024/02/09 06:22:49;;;;;;;8.48;4.05;;;9.90;99.90;;;;;;5045064;28;19905;-92
2024/02/09 06:25:15;;;;;;;10.98;4.55;;;9.90;99.90;;;;;;5044147;28;20037;-94
2024/02/09 06:27:40;;;;;;;8.70;3.97;;;9.90;99.90;;;;;;5029952;28;20025;-93
2024/02/09 06:30:06;;;;;;;11.95;4.70;;;10.10;99.90;;;;;;5028484;28;20052;-94
2024/02/09 06:32:32;;;;;;;11.02;5.03;;;10.10;99.90;;;;;;5046831;28;20041;-93
2024/02/09 06:35:01;;;;;;;7.00;3.83;;;10.10;99.90;;;;;;5045292;28;20025;-94
2024/02/09 06:37:28;;;;;;;14.38;4.15;;;10.10;99.90;;;;;;5019403;28;20040;-95
2024/02/09 06:39:54;;;;;;;11.48;3.72;;;10.10;99.90;;;;;;5019435;28;20030;-95
2024/02/09 06:42:20;;;;;;;11.15;3.95;;;10.10;99.90;;;;;;5015752;28;20025;-93
2024/02/09 06:44:47;;;;;;;9.02;4.43;;;10.10;99.90;;;;;;5014965;28;20037;-96
2024/02/09 06:47:16;;;;;;;10.55;3.85;;;10.10;99.90;;;;;;5036311;28;20797;-94
2024/02/09 06:49:44;;;;;;;14.07;4.07;;;10.20;99.90;;;;;;5018790;28;20038;-93
2024/02/09 06:52:11;;;;;;;8.70;3.78;;;10.20;99.90;;;;;;5012867;28;20395;-95
2024/02/09 06:54:38;;;;;;;8.57;4.32;;;10.30;99.90;;;;;;5030115;28;20715;-95
2024/02/09 06:57:05;;;;;;;8.18;3.08;;;10.30;99.90;;;;;;4994002;28;20064;-95
2024/02/09 06:59:32;;;;;;;7.78;3.50;;;10.40;99.90;;;;;;5009586;28;20574;-94
2024/02/09 07:02:04;;;;;;;10.13;4.55;;;10.40;99.90;;;;;;5021060;28;20101;-94
2024/02/09 07:04:30;;;;;;;9.35;3.30;;;10.50;99.90;;;;;;5031448;28;20108;-95
2024/02/09 07:06:56;;;;;;;6.93;3.08;;;10.50;99.90;;;;;;5027062;28;20868;-95
2024/02/09 07:09:21;;;;;;;12.68;4.90;;;10.50;99.90;;;;;;5033091;28;20144;-96
2024/02/09 07:11:48;;;;;;;6.10;3.00;;;10.60;99.90;;;;;;5035224;28;20048;-95
2024/02/09 07:14:23;;;;;;;9.93;3.53;;;10.70;99.90;;;;;;5032995;28;20504;-94
2024/02/09 07:16:50;;;;;;;5.82;2.75;;;10.60;99.90;;;;;;5015332;28;20032;-94
2024/02/09 07:19:18;;;;;;;7.80;3.53;;;10.70;99.90;;;;;;5013387;28;20042;-94
2024/02/09 07:21:44;;;;;;;4.88;3.35;;;10.80;99.90;;;;;;5030539;28;20022;-94
2024/02/09 07:24:10;;;;;;;12.13;3.67;;;10.70;99.90;;;;;;5029789;28;20034;-95
2024/02/09 07:26:36;;;;;;;9.63;4.10;;;10.70;99.90;;;;;;5011018;28;20037;-94
2024/02/09 07:29:03;;;;;;;8.60;3.95;;;10.70;99.90;;;;;;5021874;28;20033;-95
2024/02/09 07:31:34;;;;;;;9.73;3.80;;;10.80;99.90;;;;;;5034399;28;20026;-93
2024/02/09 07:33:59;;;;;;;11.60;4.88;;;10.90;99.90;;;;;;5012870;28;20175;-94
2024/02/09 07:36:32;;;;;;;9.00;3.60;;;10.90;99.90;;;;;;5010567;28;20515;-95
2024/02/09 07:39:00;;;;;;;7.32;2.88;;;10.90;99.90;;;;;;5013884;28;20025;-96
2024/02/09 07:41:27;;;;;;;8.65;2.95;;;10.90;99.90;;;;;;5005811;28;20037;-94
2024/02/09 07:43:53;;;;;;;5.68;3.00;;;11.00;99.90;;;;;;5022963;28;20090;-95
2024/02/09 07:46:20;;;;;;;10.27;4.20;;;11.10;99.90;;;;;;5025843;28;20037;-95
2024/02/09 07:48:46;;;;;;;7.22;2.83;;;11.20;99.90;;;;;;5019551;28;20034;-95
2024/02/09 07:51:12;;;;;;;8.45;3.70;;;11.30;99.90;;;;;;5019121;28;20476;-95
2024/02/09 07:53:40;;;;;;;7.25;2.95;;;11.30;99.90;;;;;;5027567;28;20044;-95
2024/02/09 07:56:07;;;;;;;10.00;3.47;;;11.40;99.90;;;;;;5045987;28;20102;-94
2024/02/09 07:58:32;;;;;;;7.80;3.10;;;11.50;99.90;;;;;;5051375;28;20451;-95
2024/02/09 08:00:58;;;;;;;9.63;3.40;;;11.50;99.90;;;;;;5043764;28;20030;-93
2024/02/09 08:03:24;;;;;;;5.90;3.38;;;11.50;99.90;;;;;;5024782;28;20098;-94
2024/02/09 08:05:49;;;;;;;10.30;3.20;;;11.50;99.90;;;;;;5024085;28;20025;-94
2024/02/09 08:08:15;;;;;;;11.38;3.47;;;11.50;99.90;;;;;;5043172;28;20037;-94
2024/02/09 08:10:41;;;;;;;12.73;3.08;;;11.50;99.90;;;;;;5042943;28;20054;-94
2024/02/09 08:13:10;;;;;;;8.98;3.58;;;11.60;99.90;;;;;;5043933;28;20025;-95
2024/02/09 08:15:36;;;;;;;7.10;3.08;;;11.60;99.80;;;;;;5043427;28;20029;-93
2024/02/09 08:18:01;;;;;;;7.38;2.58;;;11.70;99.40;;;;;;5043907;28;20049;-94
2024/02/09 08:20:27;;;;;;;10.45;4.15;;;11.70;98.50;;;;;;5024600;28;20041;-93
2024/02/09 08:22:53;;;;;;;5.97;3.40;;;11.70;98.60;;;;;;5026146;28;20021;-92
2024/02/09 08:25:19;;;;;;;6.00;2.58;;;11.70;99.10;;;;;;5043281;28;20028;-94
2024/02/09 08:27:46;;;;;;;10.75;2.95;;;11.70;98.10;;;;;;5030841;28;20083;-94
2024/02/09 08:30:12;;;;;;;9.15;3.33;;;11.80;97.80;;;;;;5048579;28;20447;-95
2024/02/09 08:32:41;;;;;;;11.02;3.22;;;11.80;98.60;;;;;;5046130;28;20022;-93
2024/02/09 08:35:07;;;;;;;6.63;3.08;;;11.80;96.30;;;;;;5026296;28;20021;-93
2024/02/09 08:37:33;;;;;;;9.45;4.03;;;11.90;96.50;;;;;;5027518;28;20041;-94
2024/02/09 08:39:59;;;;;;;10.25;3.33;;;11.80;97.40;;;;;;5042539;28;20025;-93
2024/02/09 08:42:29;;;;;;;6.47;3.10;;;11.80;96.30;;;;;;5042065;28;20048;-94
2024/02/09 08:44:56;;;;;;;5.57;3.13;;;11.90;95.00;;;;;;5041675;28;20044;-94
2024/02/09 08:47:22;;;;;;;10.82;3.22;;;12.00;95.70;;;;;;5042369;28;20036;-93
2024/02/09 08:49:49;;;;;;;4.85;2.83;;;11.90;94.70;;;;;;5025771;28;20057;-93
2024/02/09 08:52:17;;;;;;;8.38;3.25;;;12.10;94.20;;;;;;5025504;28;20075;-93
2024/02/09 08:54:45;;;;;;;8.95;2.88;;;12.10;91.90;;;;;;5042275;28;20036;-95
2024/02/09 08:57:20;;;;;;;11.10;3.35;;;12.20;93.30;;;;;;5041259;28;20021;-94
2024/02/09 08:59:47;;;;;;;8.65;3.22;;;12.20;92.80;;;;;;5010744;28;20025;-93
2024/02/09 09:02:12;;;;;;;7.95;3.17;;;12.20;91.60;;;;;;5042924;28;20017;-94
2024/02/09 09:04:38;;;;;;;8.38;2.58;;;12.30;92.50;;;;;;5040972;28;20079;-93
2024/02/09 09:07:04;;;;;;;14.88;5.30;;;12.30;91.50;;;;;;5023546;28;20104;-92
2024/02/09 09:09:30;;;;;;;7.93;3.38;;;12.40;90.50;;;;;;5041831;28;20052;-93
2024/02/09 09:11:56;;;;;;;7.45;2.45;;;12.40;91.30;;;;;;5024398;28;20021;-93
2024/02/09 09:14:22;;;;;;;7.53;2.90;;;12.30;90.80;;;;;;5041743;28;20021;-94
2024/02/09 09:16:48;;;;;;;6.82;3.55;;;12.40;91.80;;;;;;5041735;28;20476;-93
2024/02/09 09:19:14;;;;;;;7.05;2.83;;;12.40;91.40;;;;;;5041528;28;20033;-93
2024/02/09 09:21:41;;;;;;;8.95;2.42;;;12.40;90.40;;;;;;5023452;28;20025;-92
2024/02/09 09:24:10;;;;;;;5.22;3.10;;;12.50;90.00;;;;;;5035050;28;20029;-94
2024/02/09 09:26:36;;;;;;;7.65;3.00;;;12.50;90.40;;;;;;5042511;28;20025;-93
2024/02/09 09:29:02;;;;;;;7.50;2.50;;;12.50;90.30;;;;;;5024835;28;20032;-93
2024/02/09 09:31:31;;;;;;;5.15;2.80;;;12.50;89.20;;;;;;5042797;28;20157;-94
2024/02/09 09:33:57;;;;;;;13.13;2.85;;;12.50;89.40;;;;;;5042095;28;20105;-92
2024/02/09 09:36:22;;;;;;;6.20;3.00;;;12.60;89.60;;;;;;5041497;28;20069;-93
2024/02/09 09:38:48;;;;;;;11.35;2.85;;;12.70;87.50;;;;;;5041778;28;20068;-93
2024/02/09 09:41:19;;;;;;;8.50;3.35;;;12.80;88.70;;;;;;5041301;28;20028;-93
2024/02/09 09:43:52;;;;;;;7.45;3.00;;;12.80;88.50;;;;;;5040799;28;20052;-94
2024/02/09 09:46:21;;;;;;;7.20;2.20;;;12.70;88.20;;;;;;5042622;28;20087;-94
2024/02/09 09:48:52;;;;;;;8.15;2.70;;;12.90;87.70;;;;;;5041964;28;20380;-94
2024/02/09 09:51:20;;;;;;;11.20;3.05;;;12.80;86.50;;;;;;5040878;28;20026;-94
2024/02/09 09:53:50;;;;;;;8.60;3.15;;;12.80;87.20;;;;;;5041875;28;20488;-91
2024/02/09 09:56:18;;;;;;;9.15;2.58;;;12.90;86.30;;;;;;5041275;28;20021;-91
2024/02/09 09:58:45;;;;;;;6.75;2.72;;;12.90;87.70;;;;;;5040600;28;20026;-93
2024/02/09 10:01:12;;;;;;;6.85;2.80;;;12.90;86.50;;;;;;5044131;28;20108;-93
2024/02/09 10:03:42;;;;;;;7.25;2.78;;;13.10;84.90;;;;;;5042847;28;20052;-91
2024/02/09 10:06:08;;;;;;;10.88;3.53;;;13.10;83.90;;;;;;5052360;28;20021;-93
2024/02/09 10:08:38;;;;;;;7.57;2.70;;;13.10;84.30;;;;;;5040520;28;20036;-92
2024/02/09 10:11:08;;;;;;;8.18;2.38;;;13.20;83.40;;;;;;5041989;28;20033;-94
2024/02/09 10:13:34;;;;;;;11.63;3.55;;;13.20;84.70;;;;;;5042377;28;20551;-92
2024/02/09 10:16:03;;;;;;;8.68;3.28;;;13.10;84.20;;;;;;5024198;28;20030;-94
2024/02/09 10:18:33;;;;;;;6.65;2.35;;;13.10;83.50;;;;;;5041660;28;20033;-93
2024/02/09 10:20:59;;;;;;;7.28;3.05;;;13.20;83.90;;;;;;5041405;28;20028;-92
2024/02/09 10:23:28;;;;;;;8.77;3.05;;;13.30;84.30;;;;;;5042463;28;20109;-93
2024/02/09 10:25:58;;;;;;;6.40;2.30;;;13.30;83.70;;;;;;5040515;28;20026;-93
2024/02/09 10:28:24;;;;;;;5.38;2.55;;;13.30;80.80;;;;;;5039948;28;20030;-92
2024/02/09 10:30:52;;;;;;;5.97;2.30;;;13.40;81.80;;;;;;5040493;28;20029;-93
2024/02/09 10:33:20;;;;;;;8.82;2.17;;;13.40;83.00;;;;;;5040808;28;20033;-93
2024/02/09 10:35:46;;;;;;;7.55;2.53;;;13.40;81.50;;;;;;5040608;28;20028;-94
2024/02/09 10:38:12;;;;;;;4.38;1.73;;;13.40;80.80;;;;;;5039767;28;20041;-92
2024/02/09 10:40:38;;;;;;;10.52;3.58;;;13.50;80.20;;;;;;5038592;28;20038;-92
2024/02/09 10:43:04;;;;;;;6.50;2.78;;;13.40;79.10;;;;;;5022713;28;20029;-91
2024/02/09 10:45:33;;;;;;;4.55;2.33;;;13.50;80.50;;;;;;5022244;28;20495;-94
2024/02/09 10:48:01;;;;;;;9.20;2.65;;;13.40;81.10;;;;;;5021628;28;20124;-92
2024/02/09 10:50:32;;;;;;;8.90;2.28;;;13.50;80.20;;;;;;5039557;28;20048;-92
2024/02/09 10:53:03;;;;;;;6.90;2.45;;;13.50;78.60;;;;;;5021964;28;20072;-93
2024/02/09 10:55:41;;;;;;;8.23;3.47;;;13.60;79.30;;;;;;5039194;28;20033;-92
2024/02/09 10:58:10;;;;;;;7.30;3.33;;;13.50;79.30;;;;;;5031022;28;20035;-93
2024/02/09 11:00:38;;;;;;;8.00;3.22;;;13.50;78.70;;;;;;5020091;28;20033;-94
2024/02/09 11:03:03;;;;;;;8.80;2.22;;;13.50;80.10;;;;;;5009921;28;20071;-93
2024/02/09 11:05:30;;;;;;;7.68;2.92;;;13.50;79.70;;;;;;5024639;28;20034;-93
2024/02/09 11:07:56;;;;;;;6.15;1.92;;;13.50;80.90;;;;;;5043294;28;20051;-92
2024/02/09 11:10:25;;;;;;;6.68;2.17;;;13.50;84.50;;;;;;5026466;28;20085;-93
2024/02/09 11:12:58;;;;;;;6.38;2.55;;;13.30;86.80;;;;;;5026405;28;20017;-92
2024/02/09 11:15:24;;;;;;;11.15;2.60;;;13.30;85.60;;;;;;5025607;28;20022;-93
2024/02/09 11:17:50;;;;;;;9.07;2.55;;;13.20;86.70;;;;;;5027431;28;20112;-93
2024/02/09 11:20:17;;;;;;;9.57;2.10;;;13.10;88.10;;;;;;5042256;28;20121;-94
2024/02/09 11:22:50;;;;;;;7.88;3.33;;;13.10;88.10;;;;;;5042412;28;20463;-92
2024/02/09 11:25:18;;;;;;;6.00;3.47;;;13.10;88.30;;;;;;5044244;28;20018;-92
2024/02/09 11:27:50;;;;;;;7.03;2.40;;;13.00;89.10;;;;;;5043959;28;20022;-93
2024/02/09 11:30:17;;;;;;;6.85;2.55;;;13.00;88.60;;;;;;5025827;28;20010;-93
2024/02/09 11:32:48;;;;;;;6.03;2.50;;;13.00;89.00;;;;;;5041453;28;20017;-91
2024/02/09 11:35:15;;;;;;;5.68;2.88;;;12.90;90.40;;;;;;5042361;28;20025;-94
2024/02/09 11:37:47;;;;;;;10.65;3.60;;;12.90;90.90;;;;;;5025199;28;20106;-93
2024/02/09 11:40:15;;;;;;;10.52;3.58;;;12.80;92.10;;;;;;5046608;28;20047;-92
2024/02/09 11:42:41;;;;;;;9.88;3.47;;;12.80;92.00;;;;;;5030067;28;20109;-92
2024/02/09 11:45:11;;;;;;;5.40;2.65;;;12.70;91.70;;;;;;5048293;28;20033;-93
2024/02/09 11:47:39;;;;;;;8.73;3.58;;;12.70;91.80;;;;;;5048315;28;20391;-93
2024/02/09 11:50:17;;;;;;;7.97;2.85;;;12.70;92.60;;;;;;5029550;28;20052;-93
2024/02/09 11:52:43;;;;;;;8.73;2.97;;;12.70;92.00;;;;;;5024237;28;20018;-92
2024/02/09 11:55:09;;;;;;;6.55;3.65;;;12.70;93.10;;;;;;5049325;28;20029;-93
2024/02/09 11:57:38;;;;;;;8.68;3.20;;;12.60;92.50;;;;;;5051854;28;20024;-93
2024/02/09 12:00:06;;;;;;;5.88;2.95;;;12.60;92.30;;;;;;5040502;28;20044;-92
2024/02/09 12:02:32;;;;;;;4.22;2.50;;;12.60;93.50;;;;;;5024826;28;20021;-93
2024/02/09 12:04:58;;;;;;;5.90;2.85;;;12.60;92.10;;;;;;5026654;28;20017;-93
2024/02/09 12:07:25;;;;;;;7.13;2.75;;;12.70;92.20;;;;;;5026372;28;20044;-92
2024/02/09 12:09:53;;;;;;;8.50;2.78;;;12.70;91.50;;;;;;5042502;28;20028;-94
2024/02/09 12:12:22;;;;;;;;;;;12.80;91.90;;;;;;5024321;28;20125;-94
2024/02/09 12:14:48;;;;;;;10.27;2.63;;;12.90;91.70;;;;;;5041418;28;19905;-94
2024/02/09 12:17:14;;;;;;;7.20;2.70;;;13.00;90.60;;;;;;5042902;28;20032;-93
2024/02/09 12:19:42;;;;;;;7.78;2.55;;;13.00;89.70;;;;;;5025915;28;20058;-93
2024/02/09 12:22:07;;;;;;;;;;;13.10;89.00;;;;;;5042467;28;20049;-92
2024/02/09 12:24:34;;;;;;;8.68;3.50;;;13.20;88.00;;;;;;5025213;28;19909;-94
2024/02/09 12:27:13;;;;;;;7.13;2.38;;;13.40;89.00;;;;;;5041847;28;20025;-93
2024/02/09 12:29:40;;;;;;;4.53;2.08;;;13.40;88.50;;;;;;5042295;28;20028;-94
2024/02/09 12:32:10;;;;;;;7.82;1.90;;;13.40;87.10;;;;;;5032630;28;20056;-93
2024/02/09 12:34:54;;;;;;;7.00;3.10;;;13.50;86.50;;;;;;5024636;28;20112;-93
2024/02/09 12:37:20;;;;;;;6.45;3.38;;;13.50;86.10;;;;;;5024746;28;20013;-93
2024/02/09 12:39:53;;;;;;;10.20;3.15;;;13.60;86.90;;;;;;5044970;28;20061;-93
2024/02/09 12:42:24;;;;;;;11.27;3.17;;;13.50;85.50;;;;;;5025745;28;20049;-92
2024/02/09 12:44:50;;;;;;;8.32;2.47;;;13.60;85.80;;;;;;5044156;28;20099;-94
2024/02/09 12:47:18;;;;;;;7.55;2.22;;;13.60;86.30;;;;;;5041430;28;20377;-92
2024/02/09 12:49:46;;;;;;;5.55;3.13;;;13.80;85.50;;;;;;5040478;28;20526;-93
2024/02/09 12:52:14;;;;;;;3.72;2.17;;;13.80;85.10;;;;;;5040709;28;20050;-93
2024/02/09 12:54:42;;;;;;;4.63;2.15;;;13.70;84.50;;;;;;5031406;28;20028;-93
2024/02/09 12:57:08;;;;;;;7.95;2.97;;;13.70;86.20;;;;;;5033502;28;20032;-94
2024/02/09 12:59:39;;;;;;;7.40;3.10;;;13.60;88.40;;;;;;5024949;28;20463;-93
2024/02/09 13:02:06;;;;;;;4.20;2.28;;;13.60;88.10;;;;;;5041378;28;20024;-91
2024/02/09 13:04:32;;;;;;;4.40;2.63;;;13.50;88.10;;;;;;5042924;28;20018;-93
2024/02/09 13:06:58;;;;;;;5.65;2.63;;;13.50;89.90;;;;;;5026778;28;20028;-94
2024/02/09 13:09:24;;;;;;;5.60;2.58;;;13.50;88.40;;;;;;5030400;28;20039;-93
2024/02/09 13:11:51;;;;;;;7.78;2.70;;;13.50;89.70;;;;;;5025228;28;20029;-94
2024/02/09 13:14:21;;;;;;;7.50;3.30;;;13.50;90.80;;;;;;5042764;28;20017;-93
2024/02/09 13:16:50;;;;;;;8.20;3.03;;;13.50;91.10;;;;;;5043637;28;20025;-92
2024/02/09 13:19:16;;;;;;;12.93;3.47;;;13.50;91.00;;;;;;5050788;28;20072;-93
2024/02/09 13:21:43;;;;;;;8.63;3.03;;;13.60;92.40;;;;;;5024162;28;20025;-93
2024/02/09 13:24:08;;;;;;;8.90;3.03;;;13.60;92.80;;;;;;5036748;28;20571;-93
2024/02/09 13:26:35;;;;;;;7.20;2.80;;;13.60;92.70;;;;;;5043314;28;20072;-92
2024/02/09 13:29:02;;;;;;;6.43;3.70;;;13.60;93.40;;;;;;5044566;28;20036;-95
2024/02/09 13:31:29;;;;;;;7.05;2.42;;;13.50;92.90;;;;;;5044460;28;20056;-94
2024/02/09 13:33:58;;;;;;;8.32;2.75;;;13.50;94.10;;;;;;5026774;28;20022;-92
2024/02/09 13:36:25;;;;;;;9.77;3.22;;;13.50;94.30;;;;;;5048762;28;20136;-92
2024/02/09 13:38:51;;;;;;;6.72;3.00;;;13.50;95.70;;;;;;5051897;28;20028;-91
2024/02/09 13:41:18;;;;;;;9.30;3.58;;;13.50;95.20;;;;;;5052344;28;20092;-93
2024/02/09 13:43:44;;;;;;;10.00;3.00;;;13.50;95.80;;;;;;5064633;28;20036;-92
2024/02/09 13:46:09;;;;;;;5.57;2.47;;;13.40;97.10;;;;;;5042858;28;20037;-92
2024/02/09 13:48:35;;;;;;;8.07;2.45;;;13.40;95.50;;;;;;5055906;28;20029;-94
2024/02/09 13:51:01;;;;;;;6.60;3.38;;;13.40;95.00;;;;;;5027961;28;20475;-93
2024/02/09 13:53:27;;;;;;;6.70;2.47;;;13.30;97.10;;;;;;5041085;28;20018;-94
2024/02/09 13:55:53;;;;;;;7.25;3.60;;;13.40;98.70;;;;;;5024387;28;20023;-92
2024/02/09 13:58:19;;;;;;;7.75;2.78;;;13.30;98.90;;;;;;5023169;28;20079;-93
2024/02/09 14:00:47;;;;;;;12.18;3.10;;;13.20;99.60;;;;;;5023252;28;20056;-92
2024/02/09 14:03:12;;;;;;;5.45;2.70;;;13.20;99.90;;;;;;5041474;28;20026;-92
2024/02/09 14:05:38;;;;;;;7.80;2.80;;;13.20;99.00;;;;;;5024173;28;20025;-93
2024/02/09 14:08:04;;;;;;;9.32;4.03;;;13.20;99.20;;;;;;5044011;28;20504;-93
2024/02/09 14:10:35;;;;;;;9.57;3.72;;;13.10;99.90;;;;;;5045392;28;20107;-93
2024/02/09 14:13:01;;;;;;;7.50;3.17;;;13.10;99.90;;;;;;5040993;28;20025;-92
2024/02/09 14:15:27;;;;;;;9.68;4.85;;;13.10;99.90;;;;;;5039582;28;20564;-94
2024/02/09 14:17:54;;;;;;;9.60;4.38;;;13.10;99.90;;;;;;5021501;28;20029;-94
2024/02/09 14:20:22;;;;;;;11.48;3.92;;;13.00;99.90;;;;;;5026898;28;20080;-94
2024/02/09 14:22:48;;;;;;;10.25;5.72;;;13.00;99.90;;;;;;5019654;28;20018;-93
2024/02/09 14:25:14;;;;;;;11.57;3.63;;;12.90;99.90;;;;;;5000677;28;20499;-94
2024/02/09 14:27:42;;;;;;;9.50;3.83;;;12.90;99.90;;;;;;5018168;28;20029;-93
2024/02/09 14:30:10;;;;;;;9.68;3.72;;;12.80;99.90;;;;;;5021104;28;20029;-93
2024/02/09 14:32:36;;;;;;;12.27;4.55;;;12.80;99.90;;;;;;5023781;28;20028;-93
2024/02/09 14:35:03;;;;;;;9.10;4.40;;;12.70;99.90;;;;;;5036999;28;20027;-93